sensor_id;sensor_type;location;lat;lon;timestamp;pressure;altitude;pressure_sealevel;temperature;humidity
51067;BME280;37112;45.892;-123.962;2023-05-09T00:02:46;101595.92;;;15.57;65.24
51067;BME280;37112;45.892;-123.962;2023-05-09T00:05:19;101599.75;;;15.40;65.08
51067;BME280;37112;45.892;-123.962;2023-05-09T00:07:55;101607.69;;;15.24;65.77
51067;BME280;37112;45.892;-123.962;2023-05-09T00:10:29;101611.06;;;15.15;66.67
51067;BME280;37112;45.892;-123.962;2023-05-09T00:13:04;101609.85;;;15.22;67.25
51067;BME280;37112;45.892;-123.962;2023-05-09T00:15:37;101611.30;;;15.28;68.18
51067;BME280;37112;45.892;-123.962;2023-05-09T00:18:13;101609.67;;;15.38;68.14
51067;BME280;37112;45.892;-123.962;2023-05-09T00:20:49;101613.70;;;15.56;68.49
51067;BME280;37112;45.892;-123.962;2023-05-09T00:23:22;101616.11;;;15.68;68.23
51067;BME280;37112;45.892;-123.962;2023-05-09T00:25:57;101618.16;;;15.74;68.28
51067;BME280;37112;45.892;-123.962;2023-05-09T00:28:23;101618.85;;;15.91;68.48
51067;BME280;37112;45.892;-123.962;2023-05-09T00:30:57;101630.73;;;16.09;68.09
51067;BME280;37112;45.892;-123.962;2023-05-09T00:33:32;101632.98;;;16.17;67.62
51067;BME280;37112;45.892;-123.962;2023-05-09T00:36:07;101635.13;;;16.15;66.77
51067;BME280;37112;45.892;-123.962;2023-05-09T00:38:30;101639.67;;;16.11;67.11
51067;BME280;37112;45.892;-123.962;2023-05-09T00:41:06;101642.41;;;16.13;67.59
51067;BME280;37112;45.892;-123.962;2023-05-09T00:43:39;101642.02;;;16.16;67.32
51067;BME280;37112;45.892;-123.962;2023-05-09T00:46:08;101643.55;;;16.17;67.35
51067;BME280;37112;45.892;-123.962;2023-05-09T00:48:43;101645.70;;;16.17;67.33
51067;BME280;37112;45.892;-123.962;2023-05-09T00:51:18;101641.77;;;16.24;67.70
51067;BME280;37112;45.892;-123.962;2023-05-09T00:53:53;101644.41;;;16.31;67.42
51067;BME280;37112;45.892;-123.962;2023-05-09T00:56:27;101645.42;;;16.32;67.09
51067;BME280;37112;45.892;-123.962;2023-05-09T00:59:00;101650.27;;;16.20;66.81
51067;BME280;37112;45.892;-123.962;2023-05-09T01:01:27;101650.41;;;16.09;66.91
51067;BME280;37112;45.892;-123.962;2023-05-09T01:04:03;101654.95;;;16.01;67.17
51067;BME280;37112;45.892;-123.962;2023-05-09T01:06:47;101654.16;;;15.91;66.70
51067;BME280;37112;45.892;-123.962;2023-05-09T01:09:41;101653.86;;;15.71;66.94
51067;BME280;37112;45.892;-123.962;2023-05-09T01:12:12;101650.96;;;15.61;67.27
51067;BME280;37112;45.892;-123.962;2023-05-09T01:14:55;101658.08;;;15.62;67.60
51067;BME280;37112;45.892;-123.962;2023-05-09T01:17:35;101657.15;;;15.60;67.69
51067;BME280;37112;45.892;-123.962;2023-05-09T01:20:07;101656.44;;;15.65;67.74
51067;BME280;37112;45.892;-123.962;2023-05-09T01:22:47;101659.16;;;15.56;67.32
51067;BME280;37112;45.892;-123.962;2023-05-09T01:25:41;101659.27;;;15.50;67.32
51067;BME280;37112;45.892;-123.962;2023-05-09T01:28:22;101663.48;;;15.52;67.22
51067;BME280;37112;45.892;-123.962;2023-05-09T01:31:04;101661.92;;;15.44;66.84
51067;BME280;37112;45.892;-123.962;2023-05-09T01:33:35;101660.78;;;15.39;67.38
51067;BME280;37112;45.892;-123.962;2023-05-09T01:36:14;101663.34;;;15.48;67.91
51067;BME280;37112;45.892;-123.962;2023-05-09T01:38:44;101657.89;;;15.59;68.10
51067;BME280;37112;45.892;-123.962;2023-05-09T01:41:22;101657.43;;;15.64;67.47
51067;BME280;37112;45.892;-123.962;2023-05-09T01:43:57;101658.98;;;15.64;67.27
51067;BME280;37112;45.892;-123.962;2023-05-09T01:46:32;101659.41;;;15.64;66.90
51067;BME280;37112;45.892;-123.962;2023-05-09T01:49:08;101658.48;;;15.61;67.18
51067;BME280;37112;45.892;-123.962;2023-05-09T01:51:42;101662.84;;;15.60;66.89
51067;BME280;37112;45.892;-123.962;2023-05-09T01:54:19;101669.61;;;15.53;66.75
51067;BME280;37112;45.892;-123.962;2023-05-09T01:56:56;101673.75;;;15.41;66.54
51067;BME280;37112;45.892;-123.962;2023-05-09T01:59:34;101679.35;;;15.38;66.90
51067;BME280;37112;45.892;-123.962;2023-05-09T02:02:09;101683.13;;;15.32;66.90
51067;BME280;37112;45.892;-123.962;2023-05-09T02:04:46;101683.36;;;15.29;66.92
51067;BME280;37112;45.892;-123.962;2023-05-09T02:07:11;101687.00;;;15.26;66.56
51067;BME280;37112;45.892;-123.962;2023-05-09T02:09:45;101690.42;;;15.15;66.54
51067;BME280;37112;45.892;-123.962;2023-05-09T02:12:20;101690.64;;;15.13;67.01
51067;BME280;37112;45.892;-123.962;2023-05-09T02:14:54;101694.30;;;15.11;67.21
51067;BME280;37112;45.892;-123.962;2023-05-09T02:17:16;101696.52;;;15.10;67.05
51067;BME280;37112;45.892;-123.962;2023-05-09T02:19:51;101695.61;;;15.10;67.24
51067;BME280;37112;45.892;-123.962;2023-05-09T02:22:18;101694.50;;;15.03;66.68
51067;BME280;37112;45.892;-123.962;2023-05-09T02:24:53;101698.66;;;14.95;66.79
51067;BME280;37112;45.892;-123.962;2023-05-09T02:27:16;101696.88;;;14.90;66.94
51067;BME280;37112;45.892;-123.962;2023-05-09T02:29:54;101698.95;;;14.86;67.18
51067;BME280;37112;45.892;-123.962;2023-05-09T02:32:32;101698.97;;;14.81;67.22
51067;BME280;37112;45.892;-123.962;2023-05-09T02:35:09;101701.52;;;14.77;67.47
51067;BME280;37112;45.892;-123.962;2023-05-09T02:37:45;101701.20;;;14.74;67.46
51067;BME280;37112;45.892;-123.962;2023-05-09T02:40:19;101704.73;;;14.69;67.36
51067;BME280;37112;45.892;-123.962;2023-05-09T02:42:55;101702.80;;;14.62;67.33
51067;BME280;37112;45.892;-123.962;2023-05-09T02:45:29;101706.52;;;14.54;67.53
51067;BME280;37112;45.892;-123.962;2023-05-09T02:47:46;101706.44;;;14.50;67.65
51067;BME280;37112;45.892;-123.962;2023-05-09T02:50:00;101706.95;;;14.45;67.79
51067;BME280;37112;45.892;-123.962;2023-05-09T02:52:17;101705.57;;;14.39;67.86
51067;BME280;37112;45.892;-123.962;2023-05-09T02:54:34;101703.08;;;14.34;68.12
51067;BME280;37112;45.892;-123.962;2023-05-09T02:57:01;101706.59;;;14.27;68.14
51067;BME280;37112;45.892;-123.962;2023-05-09T02:59:24;101708.41;;;14.18;68.18
51067;BME280;37112;45.892;-123.962;2023-05-09T03:01:55;101710.39;;;14.10;68.19
51067;BME280;37112;45.892;-123.962;2023-05-09T03:04:12;101709.04;;;14.03;68.37
51067;BME280;37112;45.892;-123.962;2023-05-09T03:06:38;101713.65;;;13.96;68.60
51067;BME280;37112;45.892;-123.962;2023-05-09T03:08:58;101717.19;;;13.85;68.68
51067;BME280;37112;45.892;-123.962;2023-05-09T03:11:23;101718.23;;;13.78;68.70
51067;BME280;37112;45.892;-123.962;2023-05-09T03:13:37;101722.13;;;13.73;68.89
51067;BME280;37112;45.892;-123.962;2023-05-09T03:16:02;101719.30;;;13.69;69.10
51067;BME280;37112;45.892;-123.962;2023-05-09T03:18:30;101724.95;;;13.65;69.26
51067;BME280;37112;45.892;-123.962;2023-05-09T03:20:49;101728.13;;;13.59;69.36
51067;BME280;37112;45.892;-123.962;2023-05-09T03:23:07;101732.50;;;13.53;69.58
51067;BME280;37112;45.892;-123.962;2023-05-09T03:25:23;101734.83;;;13.47;69.71
51067;BME280;37112;45.892;-123.962;2023-05-09T03:27:58;101737.48;;;13.44;69.87
51067;BME280;37112;45.892;-123.962;2023-05-09T03:30:21;101736.78;;;13.44;70.13
51067;BME280;37112;45.892;-123.962;2023-05-09T03:32:40;101739.02;;;13.40;70.08
51067;BME280;37112;45.892;-123.962;2023-05-09T03:35:06;101739.89;;;13.32;70.13
51067;BME280;37112;45.892;-123.962;2023-05-09T03:37:21;101739.23;;;13.25;70.21
51067;BME280;37112;45.892;-123.962;2023-05-09T03:39:51;101746.52;;;13.23;70.38
51067;BME280;37112;45.892;-123.962;2023-05-09T03:42:12;101747.63;;;13.19;70.46
51067;BME280;37112;45.892;-123.962;2023-05-09T03:44:32;101749.29;;;13.15;70.56
51067;BME280;37112;45.892;-123.962;2023-05-09T03:46:56;101749.53;;;13.11;70.61
51067;BME280;37112;45.892;-123.962;2023-05-09T03:49:23;101753.33;;;13.07;70.71
51067;BME280;37112;45.892;-123.962;2023-05-09T03:51:57;101754.77;;;13.04;70.81
51067;BME280;37112;45.892;-123.962;2023-05-09T03:54:18;101758.11;;;12.99;70.87
51067;BME280;37112;45.892;-123.962;2023-05-09T03:56:44;101757.67;;;12.95;70.98
51067;BME280;37112;45.892;-123.962;2023-05-09T03:59:09;101757.13;;;12.92;71.07
51067;BME280;37112;45.892;-123.962;2023-05-09T04:01:27;101752.80;;;12.90;71.18
51067;BME280;37112;45.892;-123.962;2023-05-09T04:04:02;101758.87;;;12.87;71.24
51067;BME280;37112;45.892;-123.962;2023-05-09T04:06:38;101762.63;;;12.83;71.35
51067;BME280;37112;45.892;-123.962;2023-05-09T04:08:56;101764.10;;;12.80;71.39
51067;BME280;37112;45.892;-123.962;2023-05-09T04:11:29;101765.85;;;12.77;71.45
51067;BME280;37112;45.892;-123.962;2023-05-09T04:13:51;101768.50;;;12.75;71.46
51067;BME280;37112;45.892;-123.962;2023-05-09T04:16:28;101772.59;;;12.72;71.62
51067;BME280;37112;45.892;-123.962;2023-05-09T04:18:51;101776.17;;;12.69;71.59
51067;BME280;37112;45.892;-123.962;2023-05-09T04:21:19;101781.36;;;12.68;71.80
51067;BME280;37112;45.892;-123.962;2023-05-09T04:23:44;101782.12;;;12.68;71.83
51067;BME280;37112;45.892;-123.962;2023-05-09T04:26:11;101785.54;;;12.64;71.91
51067;BME280;37112;45.892;-123.962;2023-05-09T04:28:46;101788.48;;;12.63;71.92
51067;BME280;37112;45.892;-123.962;2023-05-09T04:31:09;101786.03;;;12.62;72.04
51067;BME280;37112;45.892;-123.962;2023-05-09T04:33:41;101785.05;;;12.60;72.13
51067;BME280;37112;45.892;-123.962;2023-05-09T04:35:56;101786.86;;;12.57;72.14
51067;BME280;37112;45.892;-123.962;2023-05-09T04:38:16;101786.64;;;12.54;72.22
51067;BME280;37112;45.892;-123.962;2023-05-09T04:40:35;101790.03;;;12.54;72.37
51067;BME280;37112;45.892;-123.962;2023-05-09T04:42:53;101786.06;;;12.55;72.49
51067;BME280;37112;45.892;-123.962;2023-05-09T04:45:27;101787.09;;;12.56;72.58
51067;BME280;37112;45.892;-123.962;2023-05-09T04:47:54;101784.67;;;12.58;72.72
51067;BME280;37112;45.892;-123.962;2023-05-09T04:50:19;101784.45;;;12.58;72.70
51067;BME280;37112;45.892;-123.962;2023-05-09T04:52:44;101786.63;;;12.58;72.81
51067;BME280;37112;45.892;-123.962;2023-05-09T04:55:21;101790.64;;;12.59;72.94
51067;BME280;37112;45.892;-123.962;2023-05-09T04:57:56;101792.90;;;12.60;72.93
51067;BME280;37112;45.892;-123.962;2023-05-09T05:00:30;101792.33;;;12.61;72.94
51067;BME280;37112;45.892;-123.962;2023-05-09T05:02:56;101793.04;;;12.61;73.08
51067;BME280;37112;45.892;-123.962;2023-05-09T05:05:30;101792.61;;;12.59;73.01
51067;BME280;37112;45.892;-123.962;2023-05-09T05:08:08;101789.00;;;12.57;73.09
51067;BME280;37112;45.892;-123.962;2023-05-09T05:10:30;101790.00;;;12.55;73.24
51067;BME280;37112;45.892;-123.962;2023-05-09T05:13:03;101789.54;;;12.53;73.22
51067;BME280;37112;45.892;-123.962;2023-05-09T05:15:24;101790.63;;;12.53;73.32
51067;BME280;37112;45.892;-123.962;2023-05-09T05:17:49;101791.20;;;12.52;73.29
51067;BME280;37112;45.892;-123.962;2023-05-09T05:20:30;101794.59;;;12.49;73.28
51067;BME280;37112;45.892;-123.962;2023-05-09T05:23:03;101796.25;;;12.48;73.44
51067;BME280;37112;45.892;-123.962;2023-05-09T05:25:37;101793.30;;;12.47;73.54
51067;BME280;37112;45.892;-123.962;2023-05-09T05:27:56;101794.85;;;12.45;73.49
51067;BME280;37112;45.892;-123.962;2023-05-09T05:30:19;101793.42;;;12.42;73.62
51067;BME280;37112;45.892;-123.962;2023-05-09T05:32:54;101796.71;;;12.41;73.63
51067;BME280;37112;45.892;-123.962;2023-05-09T05:35:27;101798.44;;;12.38;73.66
51067;BME280;37112;45.892;-123.962;2023-05-09T05:37:44;101797.61;;;12.38;73.79
51067;BME280;37112;45.892;-123.962;2023-05-09T05:40:18;101802.19;;;12.35;73.80
51067;BME280;37112;45.892;-123.962;2023-05-09T05:42:49;101799.78;;;12.34;73.74
51067;BME280;37112;45.892;-123.962;2023-05-09T05:45:23;101800.14;;;12.31;73.76
51067;BME280;37112;45.892;-123.962;2023-05-09T05:47:46;101798.06;;;12.30;73.86
51067;BME280;37112;45.892;-123.962;2023-05-09T05:50:14;101801.61;;;12.26;73.83
51067;BME280;37112;45.892;-123.962;2023-05-09T05:52:45;101800.13;;;12.25;73.94
51067;BME280;37112;45.892;-123.962;2023-05-09T05:55:06;101803.90;;;12.24;73.94
51067;BME280;37112;45.892;-123.962;2023-05-09T05:57:19;101801.45;;;12.23;74.03
51067;BME280;37112;45.892;-123.962;2023-05-09T05:59:40;101804.06;;;12.24;74.07
51067;BME280;37112;45.892;-123.962;2023-05-09T06:02:14;101805.55;;;12.23;73.96
51067;BME280;37112;45.892;-123.962;2023-05-09T06:05:01;101805.81;;;12.22;73.66
51067;BME280;37112;45.892;-123.962;2023-05-09T06:07:37;101809.61;;;12.18;73.57
51067;BME280;37112;45.892;-123.962;2023-05-09T06:10:12;101807.20;;;12.16;73.79
51067;BME280;37112;45.892;-123.962;2023-05-09T06:12:35;101811.77;;;12.14;73.69
51067;BME280;37112;45.892;-123.962;2023-05-09T06:15:11;101811.94;;;12.08;73.50
51067;BME280;37112;45.892;-123.962;2023-05-09T06:17:45;101810.41;;;12.03;73.61
51067;BME280;37112;45.892;-123.962;2023-05-09T06:20:13;101811.45;;;11.98;73.55
51067;BME280;37112;45.892;-123.962;2023-05-09T06:22:46;101817.09;;;11.92;73.58
51067;BME280;37112;45.892;-123.962;2023-05-09T06:25:12;101816.88;;;11.89;73.74
51067;BME280;37112;45.892;-123.962;2023-05-09T06:27:35;101814.64;;;11.85;73.68
51067;BME280;37112;45.892;-123.962;2023-05-09T06:29:58;101819.98;;;11.82;73.95
51067;BME280;37112;45.892;-123.962;2023-05-09T06:32:46;101822.52;;;11.81;74.12
51067;BME280;37112;45.892;-123.962;2023-05-09T06:35:13;101826.98;;;11.81;74.20
51067;BME280;37112;45.892;-123.962;2023-05-09T06:37:46;101828.88;;;11.78;74.17
51067;BME280;37112;45.892;-123.962;2023-05-09T06:40:19;101828.12;;;11.76;74.30
51067;BME280;37112;45.892;-123.962;2023-05-09T06:42:42;101823.70;;;11.72;74.24
51067;BME280;37112;45.892;-123.962;2023-05-09T06:45:16;101826.57;;;11.68;74.23
51067;BME280;37112;45.892;-123.962;2023-05-09T06:47:50;101829.82;;;11.64;74.17
51067;BME280;37112;45.892;-123.962;2023-05-09T06:50:10;101830.96;;;11.60;74.12
51067;BME280;37112;45.892;-123.962;2023-05-09T06:52:33;101826.84;;;11.54;74.08
51067;BME280;37112;45.892;-123.962;2023-05-09T06:55:08;101826.81;;;11.48;74.11
51067;BME280;37112;45.892;-123.962;2023-05-09T06:57:42;101830.27;;;11.42;74.22
51067;BME280;37112;45.892;-123.962;2023-05-09T07:00:13;101833.44;;;11.40;74.48
51067;BME280;37112;45.892;-123.962;2023-05-09T07:02:46;101833.21;;;11.38;74.60
51067;BME280;37112;45.892;-123.962;2023-05-09T07:05:20;101838.42;;;11.36;74.61
51067;BME280;37112;45.892;-123.962;2023-05-09T07:07:53;101844.38;;;11.32;74.45
51067;BME280;37112;45.892;-123.962;2023-05-09T07:10:28;101846.75;;;11.27;74.42
51067;BME280;37112;45.892;-123.962;2023-05-09T07:13:01;101849.46;;;11.23;74.58
51067;BME280;37112;45.892;-123.962;2023-05-09T07:15:35;101849.70;;;11.18;74.58
51067;BME280;37112;45.892;-123.962;2023-05-09T07:18:12;101847.65;;;11.16;74.83
51067;BME280;37112;45.892;-123.962;2023-05-09T07:20:39;101851.40;;;11.13;74.76
51067;BME280;37112;45.892;-123.962;2023-05-09T07:23:13;101854.05;;;11.06;74.55
51067;BME280;37112;45.892;-123.962;2023-05-09T07:25:39;101853.95;;;10.98;74.68
51067;BME280;37112;45.892;-123.962;2023-05-09T07:28:07;101856.50;;;10.90;74.58
51067;BME280;37112;45.892;-123.962;2023-05-09T07:30:41;101855.42;;;10.82;74.77
51067;BME280;37112;45.892;-123.962;2023-05-09T07:33:16;101857.48;;;10.77;74.97
51067;BME280;37112;45.892;-123.962;2023-05-09T07:35:50;101858.13;;;10.75;75.02
51067;BME280;37112;45.892;-123.962;2023-05-09T07:38:25;101858.14;;;10.75;75.33
51067;BME280;37112;45.892;-123.962;2023-05-09T07:40:58;101860.99;;;10.75;75.42
51067;BME280;37112;45.892;-123.962;2023-05-09T07:43:32;101863.20;;;10.73;75.31
51067;BME280;37112;45.892;-123.962;2023-05-09T07:46:05;101869.73;;;10.70;75.30
51067;BME280;37112;45.892;-123.962;2023-05-09T07:48:38;101871.26;;;10.68;75.14
51067;BME280;37112;45.892;-123.962;2023-05-09T07:51:00;101868.27;;;10.64;74.92
51067;BME280;37112;45.892;-123.962;2023-05-09T07:53:34;101869.40;;;10.59;74.93
51067;BME280;37112;45.892;-123.962;2023-05-09T07:56:09;101867.14;;;10.54;74.95
51067;BME280;37112;45.892;-123.962;2023-05-09T07:58:44;101863.95;;;10.51;74.93
51067;BME280;37112;45.892;-123.962;2023-05-09T08:01:18;101868.14;;;10.48;75.08
51067;BME280;37112;45.892;-123.962;2023-05-09T08:03:51;101866.27;;;10.43;74.93
51067;BME280;37112;45.892;-123.962;2023-05-09T08:06:20;101866.11;;;10.39;75.05
51067;BME280;37112;45.892;-123.962;2023-05-09T08:08:53;101867.80;;;10.33;75.00
51067;BME280;37112;45.892;-123.962;2023-05-09T08:11:27;101868.72;;;10.29;75.20
51067;BME280;37112;45.892;-123.962;2023-05-09T08:13:56;101870.76;;;10.27;75.38
51067;BME280;37112;45.892;-123.962;2023-05-09T08:16:31;101879.66;;;10.27;75.48
51067;BME280;37112;45.892;-123.962;2023-05-09T08:19:05;101880.11;;;10.24;75.45
51067;BME280;37112;45.892;-123.962;2023-05-09T08:21:39;101881.15;;;10.21;75.40
51067;BME280;37112;45.892;-123.962;2023-05-09T08:24:03;101879.34;;;10.17;75.54
51067;BME280;37112;45.892;-123.962;2023-05-09T08:26:37;101879.50;;;10.15;75.51
51067;BME280;37112;45.892;-123.962;2023-05-09T08:29:05;101875.02;;;10.12;75.52
51067;BME280;37112;45.892;-123.962;2023-05-09T08:31:40;101876.77;;;10.09;75.51
51067;BME280;37112;45.892;-123.962;2023-05-09T08:34:13;101877.80;;;10.06;75.51
51067;BME280;37112;45.892;-123.962;2023-05-09T08:36:48;101881.31;;;10.02;75.52
51067;BME280;37112;45.892;-123.962;2023-05-09T08:39:24;101882.01;;;9.99;75.58
51067;BME280;37112;45.892;-123.962;2023-05-09T08:41:47;101883.21;;;9.96;75.55
51067;BME280;37112;45.892;-123.962;2023-05-09T08:44:18;101882.36;;;9.91;75.55
51067;BME280;37112;45.892;-123.962;2023-05-09T08:46:55;101885.86;;;9.88;75.67
51067;BME280;37112;45.892;-123.962;2023-05-09T08:49:32;101883.70;;;9.85;75.62
51067;BME280;37112;45.892;-123.962;2023-05-09T08:52:06;101886.30;;;9.83;75.73
51067;BME280;37112;45.892;-123.962;2023-05-09T08:54:43;101887.11;;;9.81;75.80
51067;BME280;37112;45.892;-123.962;2023-05-09T08:57:16;101885.61;;;9.78;75.84
51067;BME280;37112;45.892;-123.962;2023-05-09T08:59:43;101886.65;;;9.75;75.90
51067;BME280;37112;45.892;-123.962;2023-05-09T09:02:17;101890.67;;;9.72;75.93
51067;BME280;37112;45.892;-123.962;2023-05-09T09:04:51;101889.19;;;9.70;75.93
51067;BME280;37112;45.892;-123.962;2023-05-09T09:07:27;101893.58;;;9.67;75.97
51067;BME280;37112;45.892;-123.962;2023-05-09T09:10:02;101892.64;;;9.64;76.11
51067;BME280;37112;45.892;-123.962;2023-05-09T09:12:31;101890.81;;;9.62;76.14
51067;BME280;37112;45.892;-123.962;2023-05-09T09:14:59;101891.66;;;9.59;76.20
51067;BME280;37112;45.892;-123.962;2023-05-09T09:17:39;101890.89;;;9.56;76.22
51067;BME280;37112;45.892;-123.962;2023-05-09T09:20:14;101892.58;;;9.54;76.21
51067;BME280;37112;45.892;-123.962;2023-05-09T09:22:49;101894.21;;;9.53;76.29
51067;BME280;37112;45.892;-123.962;2023-05-09T09:25:24;101898.69;;;9.52;76.46
51067;BME280;37112;45.892;-123.962;2023-05-09T09:27:58;101896.40;;;9.52;76.68
51067;BME280;37112;45.892;-123.962;2023-05-09T09:30:31;101895.98;;;9.53;76.87
51067;BME280;37112;45.892;-123.962;2023-05-09T09:33:08;101897.91;;;9.54;76.78
51067;BME280;37112;45.892;-123.962;2023-05-09T09:35:42;101894.99;;;9.55;77.11
51067;BME280;37112;45.892;-123.962;2023-05-09T09:38:18;101896.11;;;9.58;77.33
51067;BME280;37112;45.892;-123.962;2023-05-09T09:40:41;101899.41;;;9.60;77.28
51067;BME280;37112;45.892;-123.962;2023-05-09T09:43:25;101902.16;;;9.61;77.37
51067;BME280;37112;45.892;-123.962;2023-05-09T09:45:56;101904.44;;;9.62;77.35
51067;BME280;37112;45.892;-123.962;2023-05-09T09:48:32;101908.98;;;9.64;77.52
51067;BME280;37112;45.892;-123.962;2023-05-09T09:51:12;101909.13;;;9.64;77.52
51067;BME280;37112;45.892;-123.962;2023-05-09T09:53:48;101906.98;;;9.65;77.72
51067;BME280;37112;45.892;-123.962;2023-05-09T09:56:21;101910.83;;;9.66;77.73
51067;BME280;37112;45.892;-123.962;2023-05-09T09:59:13;101912.89;;;9.68;77.81
51067;BME280;37112;45.892;-123.962;2023-05-09T10:02:02;101910.84;;;9.70;78.06
51067;BME280;37112;45.892;-123.962;2023-05-09T10:04:38;101912.14;;;9.72;78.30
51067;BME280;37112;45.892;-123.962;2023-05-09T10:07:07;101910.38;;;9.76;78.42
51067;BME280;37112;45.892;-123.962;2023-05-09T10:09:44;101909.91;;;9.78;78.28
51067;BME280;37112;45.892;-123.962;2023-05-09T10:12:20;101911.57;;;9.82;78.48
51067;BME280;37112;45.892;-123.962;2023-05-09T10:15:11;101910.41;;;9.83;78.51
51067;BME280;37112;45.892;-123.962;2023-05-09T10:17:44;101910.35;;;9.85;78.52
51067;BME280;37112;45.892;-123.962;2023-05-09T10:20:11;101909.56;;;9.86;78.53
51067;BME280;37112;45.892;-123.962;2023-05-09T10:22:45;101911.23;;;9.88;78.61
51067;BME280;37112;45.892;-123.962;2023-05-09T10:25:16;101913.49;;;9.90;78.60
51067;BME280;37112;45.892;-123.962;2023-05-09T10:27:49;101912.18;;;9.91;78.68
51067;BME280;37112;45.892;-123.962;2023-05-09T10:30:30;101911.90;;;9.93;78.84
51067;BME280;37112;45.892;-123.962;2023-05-09T10:33:07;101910.24;;;9.94;78.80
51067;BME280;37112;45.892;-123.962;2023-05-09T10:35:46;101916.55;;;9.96;78.99
51067;BME280;37112;45.892;-123.962;2023-05-09T10:38:20;101917.17;;;9.98;78.91
51067;BME280;37112;45.892;-123.962;2023-05-09T10:40:55;101921.86;;;10.01;79.03
51067;BME280;37112;45.892;-123.962;2023-05-09T10:43:30;101923.85;;;10.04;79.12
51067;BME280;37112;45.892;-123.962;2023-05-09T10:46:01;101926.77;;;10.05;79.08
51067;BME280;37112;45.892;-123.962;2023-05-09T10:48:36;101929.84;;;10.09;79.13
51067;BME280;37112;45.892;-123.962;2023-05-09T10:50:59;101929.80;;;10.09;79.18
51067;BME280;37112;45.892;-123.962;2023-05-09T10:53:25;101927.25;;;10.10;79.16
51067;BME280;37112;45.892;-123.962;2023-05-09T10:56:24;101928.13;;;10.11;79.12
51067;BME280;37112;45.892;-123.962;2023-05-09T10:59:00;101924.56;;;10.11;79.15
51067;BME280;37112;45.892;-123.962;2023-05-09T11:01:35;101925.76;;;10.12;79.29
51067;BME280;37112;45.892;-123.962;2023-05-09T11:04:15;101923.76;;;10.14;79.32
51067;BME280;37112;45.892;-123.962;2023-05-09T11:06:51;101927.92;;;10.15;79.44
51067;BME280;37112;45.892;-123.962;2023-05-09T11:09:28;101925.23;;;10.16;79.39
51067;BME280;37112;45.892;-123.962;2023-05-09T11:12:11;101927.45;;;10.18;79.44
51067;BME280;37112;45.892;-123.962;2023-05-09T11:14:46;101926.38;;;10.18;79.45
51067;BME280;37112;45.892;-123.962;2023-05-09T11:17:30;101927.05;;;10.18;79.54
51067;BME280;37112;45.892;-123.962;2023-05-09T11:20:05;101925.95;;;10.19;79.47
51067;BME280;37112;45.892;-123.962;2023-05-09T11:22:43;101929.85;;;10.19;79.60
51067;BME280;37112;45.892;-123.962;2023-05-09T11:25:11;101929.77;;;10.22;79.90
51067;BME280;37112;45.892;-123.962;2023-05-09T11:27:48;101929.83;;;10.24;79.92
51067;BME280;37112;45.892;-123.962;2023-05-09T11:30:22;101929.22;;;10.26;79.97
51067;BME280;37112;45.892;-123.962;2023-05-09T11:33:07;101929.89;;;10.27;79.80
51067;BME280;37112;45.892;-123.962;2023-05-09T11:35:46;101930.80;;;10.26;79.80
51067;BME280;37112;45.892;-123.962;2023-05-09T11:38:25;101931.17;;;10.26;79.90
51067;BME280;37112;45.892;-123.962;2023-05-09T11:41:01;101935.24;;;10.26;79.87
51067;BME280;37112;45.892;-123.962;2023-05-09T11:43:35;101932.88;;;10.28;80.05
51067;BME280;37112;45.892;-123.962;2023-05-09T11:46:11;101929.44;;;10.29;80.14
51067;BME280;37112;45.892;-123.962;2023-05-09T11:48:45;101930.52;;;10.29;80.04
51067;BME280;37112;45.892;-123.962;2023-05-09T11:51:20;101930.13;;;10.29;80.04
51067;BME280;37112;45.892;-123.962;2023-05-09T11:53:54;101926.26;;;10.29;80.05
51067;BME280;37112;45.892;-123.962;2023-05-09T11:56:28;101931.01;;;10.30;80.26
51067;BME280;37112;45.892;-123.962;2023-05-09T11:59:03;101928.96;;;10.31;80.31
51067;BME280;37112;45.892;-123.962;2023-05-09T12:01:38;101935.69;;;10.32;80.30
51067;BME280;37112;45.892;-123.962;2023-05-09T12:04:10;101932.48;;;10.32;80.39
51067;BME280;37112;45.892;-123.962;2023-05-09T12:06:48;101931.14;;;10.34;80.44
51067;BME280;37112;45.892;-123.962;2023-05-09T12:09:22;101933.77;;;10.36;80.58
51067;BME280;37112;45.892;-123.962;2023-05-09T12:11:57;101933.77;;;10.36;80.61
51067;BME280;37112;45.892;-123.962;2023-05-09T12:14:32;101934.10;;;10.36;80.53
51067;BME280;37112;45.892;-123.962;2023-05-09T12:17:07;101931.48;;;10.35;80.32
51067;BME280;37112;45.892;-123.962;2023-05-09T12:19:42;101931.66;;;10.35;80.46
51067;BME280;37112;45.892;-123.962;2023-05-09T12:22:17;101928.52;;;10.33;80.22
51067;BME280;37112;45.892;-123.962;2023-05-09T12:24:51;101927.24;;;10.30;80.28
51067;BME280;37112;45.892;-123.962;2023-05-09T12:27:14;101928.19;;;10.29;80.18
51067;BME280;37112;45.892;-123.962;2023-05-09T12:29:37;101932.73;;;10.27;80.09
51067;BME280;37112;45.892;-123.962;2023-05-09T12:32:04;101928.85;;;10.26;80.31
51067;BME280;37112;45.892;-123.962;2023-05-09T12:34:30;101928.88;;;10.26;80.17
51067;BME280;37112;45.892;-123.962;2023-05-09T12:36:53;101929.58;;;10.26;80.32
51067;BME280;37112;45.892;-123.962;2023-05-09T12:39:29;101930.73;;;10.24;80.27
51067;BME280;37112;45.892;-123.962;2023-05-09T12:42:08;101929.38;;;10.23;80.37
51067;BME280;37112;45.892;-123.962;2023-05-09T12:44:49;101928.98;;;10.24;80.63
51067;BME280;37112;45.892;-123.962;2023-05-09T12:47:17;101930.52;;;10.24;80.63